sensor_id;sensor_type;location;lat;lon;timestamp;temperature;humidity
47857;DHT22;33618;49.972;8.242;2023-09-19T00:00:49;17.10;99.90
47857;DHT22;33618;49.972;8.242;2023-09-19T00:03:16;17.10;99.90
47857;DHT22;33618;49.972;8.242;2023-09-19T00:05:44;17.00;99.90
47857;DHT22;33618;49.972;8.242;2023-09-19T00:08:12;17.10;99.90
47857;DHT22;33618;49.972;8.242;2023-09-19T00:10:42;17.10;99.90
47857;DHT22;33618;49.972;8.242;2023-09-19T00:13:10;17.00;99.90
47857;DHT22;33618;49.972;8.242;2023-09-19T00:15:47;17.00;99.90
47857;DHT22;33618;49.972;8.242;2023-09-19T00:18:19;17.00;99.90
47857;DHT22;33618;49.972;8.242;2023-09-19T00:20:48;17.00;99.90
47857;DHT22;33618;49.972;8.242;2023-09-19T00:23:16;17.00;99.90
47857;DHT22;33618;49.972;8.242;2023-09-19T00:25:43;16.90;99.90
47857;DHT22;33618;49.972;8.242;2023-09-19T00:28:12;16.90;99.90
47857;DHT22;33618;49.972;8.242;2023-09-19T00:30:45;16.90;99.90
47857;DHT22;33618;49.972;8.242;2023-09-19T00:33:16;16.90;99.90
47857;DHT22;33618;49.972;8.242;2023-09-19T00:35:52;16.80;99.90
47857;DHT22;33618;49.972;8.242;2023-09-19T00:38:21;16.80;99.90
47857;DHT22;33618;49.972;8.242;2023-09-19T00:40:50;16.70;99.90
47857;DHT22;33618;49.972;8.242;2023-09-19T00:43:20;16.70;99.90
47857;DHT22;33618;49.972;8.242;2023-09-19T00:45:50;16.70;99.90
47857;DHT22;33618;49.972;8.242;2023-09-19T00:48:19;16.70;99.90
47857;DHT22;33618;49.972;8.242;2023-09-19T00:50:47;16.70;99.90
47857;DHT22;33618;49.972;8.242;2023-09-19T00:53:18;16.70;99.90
47857;DHT22;33618;49.972;8.242;2023-09-19T00:55:47;16.70;99.90
47857;DHT22;33618;49.972;8.242;2023-09-19T00:58:17;16.60;99.90
47857;DHT22;33618;49.972;8.242;2023-09-19T01:00:46;16.60;99.90
47857;DHT22;33618;49.972;8.242;2023-09-19T01:03:14;16.60;99.90
47857;DHT22;33618;49.972;8.242;2023-09-19T01:05:41;16.50;99.90
47857;DHT22;33618;49.972;8.242;2023-09-19T01:08:09;16.50;99.90
47857;DHT22;33618;49.972;8.242;2023-09-19T01:10:49;16.50;99.90
47857;DHT22;33618;49.972;8.242;2023-09-19T01:15:56;16.50;99.90
47857;DHT22;33618;49.972;8.242;2023-09-19T01:21:29;16.50;99.90
47857;DHT22;33618;49.972;8.242;2023-09-19T01:30:10;16.50;99.90
47857;DHT22;33618;49.972;8.242;2023-09-19T01:32:40;16.50;99.90
47857;DHT22;33618;49.972;8.242;2023-09-19T01:35:08;16.50;99.90
47857;DHT22;33618;49.972;8.242;2023-09-19T01:37:39;16.50;99.90
47857;DHT22;33618;49.972;8.242;2023-09-19T01:40:12;16.50;99.90
47857;DHT22;33618;49.972;8.242;2023-09-19T01:43:01;16.60;99.90
47857;DHT22;33618;49.972;8.242;2023-09-19T01:45:50;16.60;99.90
47857;DHT22;33618;49.972;8.242;2023-09-19T01:48:25;16.60;99.90
47857;DHT22;33618;49.972;8.242;2023-09-19T01:53:35;16.50;99.90
47857;DHT22;33618;49.972;8.242;2023-09-19T01:56:05;16.60;99.90
47857;DHT22;33618;49.972;8.242;2023-09-19T01:58:45;16.50;99.90
47857;DHT22;33618;49.972;8.242;2023-09-19T02:01:20;16.50;99.90
47857;DHT22;33618;49.972;8.242;2023-09-19T02:03:50;16.30;99.90
47857;DHT22;33618;49.972;8.242;2023-09-19T02:06:18;16.30;99.90
47857;DHT22;33618;49.972;8.242;2023-09-19T02:08:45;16.30;99.90
47857;DHT22;33618;49.972;8.242;2023-09-19T02:11:14;16.30;99.90
47857;DHT22;33618;49.972;8.242;2023-09-19T02:13:42;16.20;99.90
47857;DHT22;33618;49.972;8.242;2023-09-19T02:16:10;16.10;99.90
47857;DHT22;33618;49.972;8.242;2023-09-19T02:18:38;16.20;99.90
47857;DHT22;33618;49.972;8.242;2023-09-19T02:21:06;16.20;99.90
47857;DHT22;33618;49.972;8.242;2023-09-19T02:23:39;16.20;99.90
47857;DHT22;33618;49.972;8.242;2023-09-19T02:26:07;16.20;99.90
47857;DHT22;33618;49.972;8.242;2023-09-19T02:28:34;16.20;99.90
47857;DHT22;33618;49.972;8.242;2023-09-19T02:31:02;16.30;99.90
47857;DHT22;33618;49.972;8.242;2023-09-19T02:33:32;16.20;99.90
47857;DHT22;33618;49.972;8.242;2023-09-19T02:35:59;16.20;99.90
47857;DHT22;33618;49.972;8.242;2023-09-19T02:38:28;16.10;99.90
47857;DHT22;33618;49.972;8.242;2023-09-19T02:40:56;16.10;99.90
47857;DHT22;33618;49.972;8.242;2023-09-19T02:43:23;16.10;99.90
47857;DHT22;33618;49.972;8.242;2023-09-19T02:45:50;16.10;99.90
47857;DHT22;33618;49.972;8.242;2023-09-19T02:48:20;16.00;99.90
47857;DHT22;33618;49.972;8.242;2023-09-19T02:50:50;16.00;99.90
47857;DHT22;33618;49.972;8.242;2023-09-19T02:53:17;16.00;99.90
47857;DHT22;33618;49.972;8.242;2023-09-19T02:55:46;16.00;99.90
47857;DHT22;33618;49.972;8.242;2023-09-19T02:58:14;16.00;99.90
47857;DHT22;33618;49.972;8.242;2023-09-19T03:00:42;16.00;99.90
47857;DHT22;33618;49.972;8.242;2023-09-19T03:03:09;16.00;99.90
47857;DHT22;33618;49.972;8.242;2023-09-19T03:05:36;15.90;99.90
47857;DHT22;33618;49.972;8.242;2023-09-19T03:08:05;15.90;99.90
47857;DHT22;33618;49.972;8.242;2023-09-19T03:10:33;15.90;99.90
47857;DHT22;33618;49.972;8.242;2023-09-19T03:13:00;15.80;99.90
47857;DHT22;33618;49.972;8.242;2023-09-19T03:15:26;15.80;99.90
47857;DHT22;33618;49.972;8.242;2023-09-19T03:17:53;15.80;99.90
47857;DHT22;33618;49.972;8.242;2023-09-19T03:20:20;15.80;99.90
47857;DHT22;33618;49.972;8.242;2023-09-19T03:22:48;15.70;99.90
47857;DHT22;33618;49.972;8.242;2023-09-19T03:25:15;15.80;99.90
47857;DHT22;33618;49.972;8.242;2023-09-19T03:27:44;15.80;99.90
47857;DHT22;33618;49.972;8.242;2023-09-19T03:30:11;15.80;99.90
47857;DHT22;33618;49.972;8.242;2023-09-19T03:32:47;15.80;99.90
47857;DHT22;33618;49.972;8.242;2023-09-19T03:35:17;15.80;99.90
47857;DHT22;33618;49.972;8.242;2023-09-19T03:37:44;15.80;99.90
47857;DHT22;33618;49.972;8.242;2023-09-19T03:40:12;15.80;99.90
47857;DHT22;33618;49.972;8.242;2023-09-19T03:42:40;15.80;99.90
47857;DHT22;33618;49.972;8.242;2023-09-19T03:45:08;15.70;99.90
47857;DHT22;33618;49.972;8.242;2023-09-19T03:47:39;15.70;99.90
47857;DHT22;33618;49.972;8.242;2023-09-19T03:50:08;15.60;99.90
47857;DHT22;33618;49.972;8.242;2023-09-19T03:52:38;15.60;99.90
47857;DHT22;33618;49.972;8.242;2023-09-19T03:55:05;15.50;99.90
47857;DHT22;33618;49.972;8.242;2023-09-19T03:57:32;15.50;99.90
47857;DHT22;33618;49.972;8.242;2023-09-19T04:00:02;15.50;99.90
47857;DHT22;33618;49.972;8.242;2023-09-19T04:02:29;15.50;99.90
47857;DHT22;33618;49.972;8.242;2023-09-19T04:04:59;15.50;99.90
47857;DHT22;33618;49.972;8.242;2023-09-19T04:07:26;15.50;99.90
47857;DHT22;33618;49.972;8.242;2023-09-19T04:09:55;15.50;99.90
47857;DHT22;33618;49.972;8.242;2023-09-19T04:12:22;15.50;99.90
47857;DHT22;33618;49.972;8.242;2023-09-19T04:14:49;15.50;99.90
47857;DHT22;33618;49.972;8.242;2023-09-19T04:17:16;15.50;99.90
47857;DHT22;33618;49.972;8.242;2023-09-19T04:19:45;15.50;99.90
47857;DHT22;33618;49.972;8.242;2023-09-19T04:22:12;15.50;99.90
47857;DHT22;33618;49.972;8.242;2023-09-19T04:24:40;15.50;99.90
47857;DHT22;33618;49.972;8.242;2023-09-19T04:27:07;15.50;99.90
47857;DHT22;33618;49.972;8.242;2023-09-19T04:29:34;15.50;99.90
47857;DHT22;33618;49.972;8.242;2023-09-19T04:32:01;15.40;99.90
47857;DHT22;33618;49.972;8.242;2023-09-19T04:34:33;15.40;99.90
47857;DHT22;33618;49.972;8.242;2023-09-19T04:37:02;15.40;99.90
47857;DHT22;33618;49.972;8.242;2023-09-19T04:39:33;15.40;99.90
47857;DHT22;33618;49.972;8.242;2023-09-19T04:42:01;15.40;99.90
47857;DHT22;33618;49.972;8.242;2023-09-19T04:44:27;15.40;99.90
47857;DHT22;33618;49.972;8.242;2023-09-19T04:46:54;15.30;99.90
47857;DHT22;33618;49.972;8.242;2023-09-19T04:49:21;15.40;99.90
47857;DHT22;33618;49.972;8.242;2023-09-19T04:51:48;15.30;99.90
47857;DHT22;33618;49.972;8.242;2023-09-19T04:54:15;15.30;99.90
47857;DHT22;33618;49.972;8.242;2023-09-19T04:56:42;15.30;99.90
47857;DHT22;33618;49.972;8.242;2023-09-19T04:59:09;15.30;99.90
47857;DHT22;33618;49.972;8.242;2023-09-19T05:01:37;15.20;99.90
47857;DHT22;33618;49.972;8.242;2023-09-19T05:04:05;15.30;99.90
47857;DHT22;33618;49.972;8.242;2023-09-19T05:06:32;15.20;99.90
47857;DHT22;33618;49.972;8.242;2023-09-19T05:09:00;15.20;99.90
47857;DHT22;33618;49.972;8.242;2023-09-19T05:11:27;15.20;99.90
47857;DHT22;33618;49.972;8.242;2023-09-19T05:13:57;15.20;99.90
47857;DHT22;33618;49.972;8.242;2023-09-19T05:16:24;15.20;99.90
47857;DHT22;33618;49.972;8.242;2023-09-19T05:18:50;15.20;99.90
47857;DHT22;33618;49.972;8.242;2023-09-19T05:21:17;15.20;99.90
47857;DHT22;33618;49.972;8.242;2023-09-19T05:23:45;15.20;99.90
47857;DHT22;33618;49.972;8.242;2023-09-19T05:26:12;15.20;99.90
47857;DHT22;33618;49.972;8.242;2023-09-19T05:28:39;15.10;99.90
47857;DHT22;33618;49.972;8.242;2023-09-19T05:31:06;15.20;99.90
47857;DHT22;33618;49.972;8.242;2023-09-19T05:33:33;15.10;99.90
47857;DHT22;33618;49.972;8.242;2023-09-19T05:36:00;15.20;99.90
47857;DHT22;33618;49.972;8.242;2023-09-19T05:38:27;15.10;99.90
47857;DHT22;33618;49.972;8.242;2023-09-19T05:40:54;15.00;99.90
47857;DHT22;33618;49.972;8.242;2023-09-19T05:43:21;15.10;99.90
47857;DHT22;33618;49.972;8.242;2023-09-19T05:45:48;15.10;99.90
47857;DHT22;33618;49.972;8.242;2023-09-19T05:48:19;15.10;99.90
47857;DHT22;33618;49.972;8.242;2023-09-19T05:50:47;15.10;99.90
47857;DHT22;33618;49.972;8.242;2023-09-19T05:53:15;15.10;99.90
47857;DHT22;33618;49.972;8.242;2023-09-19T05:55:42;15.20;99.90
47857;DHT22;33618;49.972;8.242;2023-09-19T05:58:10;15.30;99.90
47857;DHT22;33618;49.972;8.242;2023-09-19T06:00:37;15.30;99.90
47857;DHT22;33618;49.972;8.242;2023-09-19T06:03:06;15.30;99.90
47857;DHT22;33618;49.972;8.242;2023-09-19T06:05:33;15.50;99.90
47857;DHT22;33618;49.972;8.242;2023-09-19T06:08:00;15.50;99.90
47857;DHT22;33618;49.972;8.242;2023-09-19T06:10:28;15.60;99.90
47857;DHT22;33618;49.972;8.242;2023-09-19T06:12:56;15.60;99.90
47857;DHT22;33618;49.972;8.242;2023-09-19T06:15:24;15.60;99.90
47857;DHT22;33618;49.972;8.242;2023-09-19T06:17:54;15.50;99.90
47857;DHT22;33618;49.972;8.242;2023-09-19T06:20:26;15.60;99.90
47857;DHT22;33618;49.972;8.242;2023-09-19T06:22:54;15.50;99.90
47857;DHT22;33618;49.972;8.242;2023-09-19T06:25:21;15.50;99.90
47857;DHT22;33618;49.972;8.242;2023-09-19T06:27:50;15.60;99.90
47857;DHT22;33618;49.972;8.242;2023-09-19T06:30:21;15.60;99.90
47857;DHT22;33618;49.972;8.242;2023-09-19T06:32:55;15.60;99.90
47857;DHT22;33618;49.972;8.242;2023-09-19T06:35:23;15.60;99.90
47857;DHT22;33618;49.972;8.242;2023-09-19T06:37:50;15.60;99.90
47857;DHT22;33618;49.972;8.242;2023-09-19T06:40:18;15.70;99.90
47857;DHT22;33618;49.972;8.242;2023-09-19T06:42:49;15.70;99.90
47857;DHT22;33618;49.972;8.242;2023-09-19T06:45:17;15.80;99.90
47857;DHT22;33618;49.972;8.242;2023-09-19T06:47:51;15.90;99.90
47857;DHT22;33618;49.972;8.242;2023-09-19T06:50:19;15.90;99.90
47857;DHT22;33618;49.972;8.242;2023-09-19T06:52:53;16.00;99.90
47857;DHT22;33618;49.972;8.242;2023-09-19T06:55:22;15.90;99.90
47857;DHT22;33618;49.972;8.242;2023-09-19T06:57:52;16.00;99.90
47857;DHT22;33618;49.972;8.242;2023-09-19T07:00:21;16.10;99.90
47857;DHT22;33618;49.972;8.242;2023-09-19T07:02:58;16.10;99.90
47857;DHT22;33618;49.972;8.242;2023-09-19T07:05:28;16.20;99.90
47857;DHT22;33618;49.972;8.242;2023-09-19T07:07:55;16.30;99.90
47857;DHT22;33618;49.972;8.242;2023-09-19T07:10:22;16.30;99.90
47857;DHT22;33618;49.972;8.242;2023-09-19T07:13:02;16.30;99.90
47857;DHT22;33618;49.972;8.242;2023-09-19T07:15:32;16.40;99.90
47857;DHT22;33618;49.972;8.242;2023-09-19T07:18:02;16.40;99.90
47857;DHT22;33618;49.972;8.242;2023-09-19T07:20:30;16.40;99.90
47857;DHT22;33618;49.972;8.242;2023-09-19T07:22:59;16.40;99.90
47857;DHT22;33618;49.972;8.242;2023-09-19T07:25:27;16.50;99.90
47857;DHT22;33618;49.972;8.242;2023-09-19T07:27:56;16.60;99.90
47857;DHT22;33618;49.972;8.242;2023-09-19T07:30:23;16.60;99.90
47857;DHT22;33618;49.972;8.242;2023-09-19T07:32:50;16.70;99.90
47857;DHT22;33618;49.972;8.242;2023-09-19T07:35:17;16.80;99.90
47857;DHT22;33618;49.972;8.242;2023-09-19T07:37:46;16.80;99.90
47857;DHT22;33618;49.972;8.242;2023-09-19T07:40:19;16.80;99.90
47857;DHT22;33618;49.972;8.242;2023-09-19T07:42:48;16.80;99.70
47857;DHT22;33618;49.972;8.242;2023-09-19T07:45:15;16.90;99.60
47857;DHT22;33618;49.972;8.242;2023-09-19T07:47:45;16.90;99.20
47857;DHT22;33618;49.972;8.242;2023-09-19T07:50:16;16.90;99.10
47857;DHT22;33618;49.972;8.242;2023-09-19T07:52:46;16.90;98.40
47857;DHT22;33618;49.972;8.242;2023-09-19T07:55:14;16.90;98.10
47857;DHT22;33618;49.972;8.242;2023-09-19T07:57:44;17.00;98.20
47857;DHT22;33618;49.972;8.242;2023-09-19T08:00:11;17.00;97.00
47857;DHT22;33618;49.972;8.242;2023-09-19T08:02:42;17.00;95.60
47857;DHT22;33618;49.972;8.242;2023-09-19T08:05:10;17.00;95.90
47857;DHT22;33618;49.972;8.242;2023-09-19T08:07:40;16.90;95.20
47857;DHT22;33618;49.972;8.242;2023-09-19T08:10:08;17.00;95.30
47857;DHT22;33618;49.972;8.242;2023-09-19T08:12:35;17.00;94.50
47857;DHT22;33618;49.972;8.242;2023-09-19T08:15:06;17.00;94.50
47857;DHT22;33618;49.972;8.242;2023-09-19T08:17:35;17.10;94.70
47857;DHT22;33618;49.972;8.242;2023-09-19T08:20:02;17.20;94.20
47857;DHT22;33618;49.972;8.242;2023-09-19T08:22:32;17.20;93.30
47857;DHT22;33618;49.972;8.242;2023-09-19T08:24:59;17.20;93.30
47857;DHT22;33618;49.972;8.242;2023-09-19T08:27:26;17.30;93.40
47857;DHT22;33618;49.972;8.242;2023-09-19T08:29:55;17.50;93.30
47857;DHT22;33618;49.972;8.242;2023-09-19T08:32:22;17.60;92.90
47857;DHT22;33618;49.972;8.242;2023-09-19T08:34:51;17.60;92.70
47857;DHT22;33618;49.972;8.242;2023-09-19T08:37:18;17.60;92.30
47857;DHT22;33618;49.972;8.242;2023-09-19T08:39:45;17.60;92.20
47857;DHT22;33618;49.972;8.242;2023-09-19T08:42:12;17.80;92.70
47857;DHT22;33618;49.972;8.242;2023-09-19T08:44:40;18.00;92.90
47857;DHT22;33618;49.972;8.242;2023-09-19T08:47:10;18.30;91.90
47857;DHT22;33618;49.972;8.242;2023-09-19T08:49:58;18.30;92.50
47857;DHT22;33618;49.972;8.242;2023-09-19T08:52:41;18.30;91.40
47857;DHT22;33618;49.972;8.242;2023-09-19T08:55:12;18.40;91.00
47857;DHT22;33618;49.972;8.242;2023-09-19T08:57:41;18.40;90.80
47857;DHT22;33618;49.972;8.242;2023-09-19T09:00:11;18.30;90.70
47857;DHT22;33618;49.972;8.242;2023-09-19T09:02:39;18.50;90.50
47857;DHT22;33618;49.972;8.242;2023-09-19T09:05:10;18.70;90.50
47857;DHT22;33618;49.972;8.242;2023-09-19T09:07:38;18.90;90.40
47857;DHT22;33618;49.972;8.242;2023-09-19T09:10:05;19.10;89.60
47857;DHT22;33618;49.972;8.242;2023-09-19T09:12:35;18.90;88.90
47857;DHT22;33618;49.972;8.242;2023-09-19T09:15:07;18.90;88.50
47857;DHT22;33618;49.972;8.242;2023-09-19T09:17:38;18.90;89.00
47857;DHT22;33618;49.972;8.242;2023-09-19T09:20:05;18.90;89.70
47857;DHT22;33618;49.972;8.242;2023-09-19T09:22:35;18.90;90.20
47857;DHT22;33618;49.972;8.242;2023-09-19T09:25:03;19.10;90.10
47857;DHT22;33618;49.972;8.242;2023-09-19T09:27:31;19.30;90.00
47857;DHT22;33618;49.972;8.242;2023-09-19T09:29:59;19.40;89.80
47857;DHT22;33618;49.972;8.242;2023-09-19T09:32:30;19.40;88.80
47857;DHT22;33618;49.972;8.242;2023-09-19T09:35:01;19.40;88.30
47857;DHT22;33618;49.972;8.242;2023-09-19T09:37:29;19.50;88.80
47857;DHT22;33618;49.972;8.242;2023-09-19T09:40:02;19.50;88.70
47857;DHT22;33618;49.972;8.242;2023-09-19T09:42:40;19.40;89.20
47857;DHT22;33618;49.972;8.242;2023-09-19T09:45:15;19.50;89.10
47857;DHT22;33618;49.972;8.242;2023-09-19T09:47:46;19.50;89.90
47857;DHT22;33618;49.972;8.242;2023-09-19T09:53:25;19.90;86.90
47857;DHT22;33618;49.972;8.242;2023-09-19T09:58:27;20.00;87.10
47857;DHT22;33618;49.972;8.242;2023-09-19T10:00:59;20.20;87.00
47857;DHT22;33618;49.972;8.242;2023-09-19T10:03:37;20.40;86.10
47857;DHT22;33618;49.972;8.242;2023-09-19T10:06:14;20.00;84.50
47857;DHT22;33618;49.972;8.242;2023-09-19T10:09:01;19.90;85.40
47857;DHT22;33618;49.972;8.242;2023-09-19T10:11:44;19.80;85.30
47857;DHT22;33618;49.972;8.242;2023-09-19T10:14:13;19.80;85.20
47857;DHT22;33618;49.972;8.242;2023-09-19T10:16:46;19.90;85.20
47857;DHT22;33618;49.972;8.242;2023-09-19T10:19:46;19.90;85.20
47857;DHT22;33618;49.972;8.242;2023-09-19T10:22:20;19.90;84.60
47857;DHT22;33618;49.972;8.242;2023-09-19T10:24:49;20.20;84.00
47857;DHT22;33618;49.972;8.242;2023-09-19T10:27:29;20.50;83.40
47857;DHT22;33618;49.972;8.242;2023-09-19T10:30:06;20.50;81.70
47857;DHT22;33618;49.972;8.242;2023-09-19T10:32:35;20.40;81.80
47857;DHT22;33618;49.972;8.242;2023-09-19T10:35:05;20.50;82.20
47857;DHT22;33618;49.972;8.242;2023-09-19T10:37:34;20.70;82.20
47857;DHT22;33618;49.972;8.242;2023-09-19T10:40:06;20.70;82.80
47857;DHT22;33618;49.972;8.242;2023-09-19T10:42:38;20.40;82.60
47857;DHT22;33618;49.972;8.242;2023-09-19T10:45:07;20.40;83.20
47857;DHT22;33618;49.972;8.242;2023-09-19T10:47:39;20.60;82.90
47857;DHT22;33618;49.972;8.242;2023-09-19T10:50:07;20.90;82.80
47857;DHT22;33618;49.972;8.242;2023-09-19T10:52:39;20.90;83.20
47857;DHT22;33618;49.972;8.242;2023-09-19T10:55:08;21.10;82.30
47857;DHT22;33618;49.972;8.242;2023-09-19T10:57:37;20.80;82.00
47857;DHT22;33618;49.972;8.242;2023-09-19T11:00:07;20.50;82.80
47857;DHT22;33618;49.972;8.242;2023-09-19T11:05:42;21.60;81.20
47857;DHT22;33618;49.972;8.242;2023-09-19T11:08:09;21.50;79.00
47857;DHT22;33618;49.972;8.242;2023-09-19T11:10:48;21.80;79.80
47857;DHT22;33618;49.972;8.242;2023-09-19T11:13:27;21.90;78.10
47857;DHT22;33618;49.972;8.242;2023-09-19T11:26:44;22.10;77.20
47857;DHT22;33618;49.972;8.242;2023-09-19T11:29:28;21.80;77.20
47857;DHT22;33618;49.972;8.242;2023-09-19T11:31:55;21.60;78.00
47857;DHT22;33618;49.972;8.242;2023-09-19T11:34:46;21.70;78.10
47857;DHT22;33618;49.972;8.242;2023-09-19T11:40:07;22.10;78.40
47857;DHT22;33618;49.972;8.242;2023-09-19T11:42:45;22.30;77.50
47857;DHT22;33618;49.972;8.242;2023-09-19T11:48:18;22.50;76.80
47857;DHT22;33618;49.972;8.242;2023-09-19T11:50:46;22.60;77.20
47857;DHT22;33618;49.972;8.242;2023-09-19T11:53:14;22.80;77.40
47857;DHT22;33618;49.972;8.242;2023-09-19T11:55:43;22.90;76.40
47857;DHT22;33618;49.972;8.242;2023-09-19T11:58:12;23.20;76.20
47857;DHT22;33618;49.972;8.242;2023-09-19T12:00:42;23.20;76.10
47857;DHT22;33618;49.972;8.242;2023-09-19T12:03:11;23.60;76.70
47857;DHT22;33618;49.972;8.242;2023-09-19T12:05:40;23.80;75.60
47857;DHT22;33618;49.972;8.242;2023-09-19T12:08:07;23.50;74.80
47857;DHT22;33618;49.972;8.242;2023-09-19T12:10:45;23.20;75.00
47857;DHT22;33618;49.972;8.242;2023-09-19T12:13:16;23.20;74.70
47857;DHT22;33618;49.972;8.242;2023-09-19T12:15:44;23.30;74.50
47857;DHT22;33618;49.972;8.242;2023-09-19T12:18:30;23.40;73.90
47857;DHT22;33618;49.972;8.242;2023-09-19T12:20:58;23.70;75.00
47857;DHT22;33618;49.972;8.242;2023-09-19T12:23:25;23.90;74.10
47857;DHT22;33618;49.972;8.242;2023-09-19T12:25:53;24.10;74.10
47857;DHT22;33618;49.972;8.242;2023-09-19T12:28:27;24.10;73.70
47857;DHT22;33618;49.972;8.242;2023-09-19T12:31:07;24.10;73.80
47857;DHT22;33618;49.972;8.242;2023-09-19T12:33:34;24.40;73.50
47857;DHT22;33618;49.972;8.242;2023-09-19T12:36:20;24.80;72.90
47857;DHT22;33618;49.972;8.242;2023-09-19T12:38:52;24.60;71.80
47857;DHT22;33618;49.972;8.242;2023-09-19T12:41:20;24.20;72.30
47857;DHT22;33618;49.972;8.242;2023-09-19T12:43:48;24.00;72.80
47857;DHT22;33618;49.972;8.242;2023-09-19T12:46:20;24.10;72.90
47857;DHT22;33618;49.972;8.242;2023-09-19T12:49:18;23.90;73.60
47857;DHT22;33618;49.972;8.242;2023-09-19T12:51:49;23.90;72.90
47857;DHT22;33618;49.972;8.242;2023-09-19T12:54:16;23.30;73.10
47857;DHT22;33618;49.972;8.242;2023-09-19T12:56:44;23.10;73.40
47857;DHT22;33618;49.972;8.242;2023-09-19T12:59:15;23.10;73.70
47857;DHT22;33618;49.972;8.242;2023-09-19T13:01:42;23.20;74.40
47857;DHT22;33618;49.972;8.242;2023-09-19T13:04:21;23.50;74.00
47857;DHT22;33618;49.972;8.242;2023-09-19T13:06:56;23.60;73.70
47857;DHT22;33618;49.972;8.242;2023-09-19T13:09:28;24.10;73.80
47857;DHT22;33618;49.972;8.242;2023-09-19T13:12:01;24.30;72.30
47857;DHT22;33618;49.972;8.242;2023-09-19T13:14:32;24.20;72.80
47857;DHT22;33618;49.972;8.242;2023-09-19T13:17:05;23.80;72.80
47857;DHT22;33618;49.972;8.242;2023-09-19T13:19:48;23.90;72.90
47857;DHT22;33618;49.972;8.242;2023-09-19T13:22:35;24.20;73.00
47857;DHT22;33618;49.972;8.242;2023-09-19T13:25:03;24.40;72.60
47857;DHT22;33618;49.972;8.242;2023-09-19T13:27:30;24.10;72.30
47857;DHT22;33618;49.972;8.242;2023-09-19T13:29:58;24.30;72.20
47857;DHT22;33618;49.972;8.242;2023-09-19T13:32:26;24.40;72.50
47857;DHT22;33618;49.972;8.242;2023-09-19T13:34:53;24.50;72.00
47857;DHT22;33618;49.972;8.242;2023-09-19T13:37:20;24.30;71.50
47857;DHT22;33618;49.972;8.242;2023-09-19T13:39:47;23.90;72.60
47857;DHT22;33618;49.972;8.242;2023-09-19T13:42:15;23.40;73.10
47857;DHT22;33618;49.972;8.242;2023-09-19T13:44:43;23.10;73.30
47857;DHT22;33618;49.972;8.242;2023-09-19T13:47:10;22.90;73.30
47857;DHT22;33618;49.972;8.242;2023-09-19T13:49:40;22.80;73.20
47857;DHT22;33618;49.972;8.242;2023-09-19T13:52:07;22.70;72.70
47857;DHT22;33618;49.972;8.242;2023-09-19T13:54:35;22.90;73.00
47857;DHT22;33618;49.972;8.242;2023-09-19T13:57:01;23.20;72.40
47857;DHT22;33618;49.972;8.242;2023-09-19T13:59:28;23.30;72.40
47857;DHT22;33618;49.972;8.242;2023-09-19T14:01:57;23.30;72.30
47857;DHT22;33618;49.972;8.242;2023-09-19T14:04:24;23.00;72.20
47857;DHT22;33618;49.972;8.242;2023-09-19T14:06:50;23.00;72.60
47857;DHT22;33618;49.972;8.242;2023-09-19T14:09:17;23.10;72.90
47857;DHT22;33618;49.972;8.242;2023-09-19T14:11:46;23.30;73.30
47857;DHT22;33618;49.972;8.242;2023-09-19T14:14:14;23.50;73.10
47857;DHT22;33618;49.972;8.242;2023-09-19T14:16:42;24.00;72.60
47857;DHT22;33618;49.972;8.242;2023-09-19T14:19:09;24.20;72.30
47857;DHT22;33618;49.972;8.242;2023-09-19T14:21:35;24.20;72.30
47857;DHT22;33618;49.972;8.242;2023-09-19T14:24:06;24.30;72.00
47857;DHT22;33618;49.972;8.242;2023-09-19T14:26:36;24.20;72.00
47857;DHT22;33618;49.972;8.242;2023-09-19T14:29:03;24.10;72.10
47857;DHT22;33618;49.972;8.242;2023-09-19T14:31:30;23.70;72.50
47857;DHT22;33618;49.972;8.242;2023-09-19T14:33:57;23.90;72.70
47857;DHT22;33618;49.972;8.242;2023-09-19T14:36:26;24.00;72.30
47857;DHT22;33618;49.972;8.242;2023-09-19T14:38:53;23.90;72.80
47857;DHT22;33618;49.972;8.242;2023-09-19T14:41:25;23.90;72.80
47857;DHT22;33618;49.972;8.242;2023-09-19T14:43:52;23.80;72.90
47857;DHT22;33618;49.972;8.242;2023-09-19T14:46:19;24.10;72.60
47857;DHT22;33618;49.972;8.242;2023-09-19T14:48:46;24.60;72.40
47857;DHT22;33618;49.972;8.242;2023-09-19T14:51:13;24.80;71.90
47857;DHT22;33618;49.972;8.242;2023-09-19T14:53:41;24.60;72.60
47857;DHT22;33618;49.972;8.242;2023-09-19T14:56:09;24.90;72.40
47857;DHT22;33618;49.972;8.242;2023-09-19T14:58:37;25.20;71.60
47857;DHT22;33618;49.972;8.242;2023-09-19T15:01:10;25.30;72.00
47857;DHT22;33618;49.972;8.242;2023-09-19T15:03:39;25.30;71.90
47857;DHT22;33618;49.972;8.242;2023-09-19T15:06:11;25.90;71.40
47857;DHT22;33618;49.972;8.242;2023-09-19T15:08:41;25.70;71.40
47857;DHT22;33618;49.972;8.242;2023-09-19T15:11:18;25.80;71.20
47857;DHT22;33618;49.972;8.242;2023-09-19T15:13:47;25.90;71.30
47857;DHT22;33618;49.972;8.242;2023-09-19T15:16:14;25.50;71.10
47857;DHT22;33618;49.972;8.242;2023-09-19T15:18:43;25.20;71.60
47857;DHT22;33618;49.972;8.242;2023-09-19T15:21:12;25.00;72.00
47857;DHT22;33618;49.972;8.242;2023-09-19T15:23:42;24.70;72.70
47857;DHT22;33618;49.972;8.242;2023-09-19T15:26:13;24.80;72.60
47857;DHT22;33618;49.972;8.242;2023-09-19T15:28:44;25.00;73.00
47857;DHT22;33618;49.972;8.242;2023-09-19T15:31:12;24.90;72.60
47857;DHT22;33618;49.972;8.242;2023-09-19T15:33:40;24.30;73.30
47857;DHT22;33618;49.972;8.242;2023-09-19T15:36:08;24.10;73.80
47857;DHT22;33618;49.972;8.242;2023-09-19T15:39:08;24.00;73.80
47857;DHT22;33618;49.972;8.242;2023-09-19T15:41:40;23.90;74.10
47857;DHT22;33618;49.972;8.242;2023-09-19T15:44:12;23.50;74.70
47857;DHT22;33618;49.972;8.242;2023-09-19T15:46:40;23.00;74.80
47857;DHT22;33618;49.972;8.242;2023-09-19T15:49:08;22.70;75.40
47857;DHT22;33618;49.972;8.242;2023-09-19T15:51:35;22.50;76.10
47857;DHT22;33618;49.972;8.242;2023-09-19T15:54:12;22.40;76.40
47857;DHT22;33618;49.972;8.242;2023-09-19T15:56:42;22.30;76.50
47857;DHT22;33618;49.972;8.242;2023-09-19T15:59:10;22.20;76.90
47857;DHT22;33618;49.972;8.242;2023-09-19T16:01:41;22.30;77.00
47857;DHT22;33618;49.972;8.242;2023-09-19T16:04:10;22.40;77.00
47857;DHT22;33618;49.972;8.242;2023-09-19T16:06:38;22.30;77.60
47857;DHT22;33618;49.972;8.242;2023-09-19T16:09:05;22.40;77.30
47857;DHT22;33618;49.972;8.242;2023-09-19T16:11:34;22.50;77.50
47857;DHT22;33618;49.972;8.242;2023-09-19T16:14:03;22.50;77.40
47857;DHT22;33618;49.972;8.242;2023-09-19T16:16:30;22.30;77.90
47857;DHT22;33618;49.972;8.242;2023-09-19T16:19:02;22.30;78.10
47857;DHT22;33618;49.972;8.242;2023-09-19T16:21:33;22.50;78.00
47857;DHT22;33618;49.972;8.242;2023-09-19T16:24:03;22.50;78.00
47857;DHT22;33618;49.972;8.242;2023-09-19T16:26:33;22.30;78.10